Adak Island, Alaska
Current Conditions -  °F | °C
As of 1:56 PM on Friday 24 Oct 2014 (Local Time) from PADK Reporting Station
Overcast Overcast  
Wind Chill:   Ceiling: 2700
Heat Index:   Visibility: NA
Dew Point:   Wind: 13mph
Humidity: 70%   Direction: 360°N
Pressure: 30.07"   Gusts: NA
Location:  51.88°N, 176.65°W
Report Text: PADK 242256Z AUTO 36011KT OVC027 06/01 A3007 RMK AO1
Loading
Personal Weather Stations






























Interactive Weather Map
Tropical Storm Tracking
New forecast layout! Learn more

10-Day Weather Forecast

Advertisements
Track Severe Weather on mobile